Time,TemperatureF,DewpointF,PressureIn,WindDirection,WindDirectionDegrees,WindSpeedMPH,WindSpeedGustMPH,Humidity,HourlyPrecipIn,Conditions,Clouds,dailyrainin,SoftwareType,DateUTC
2013-05-04 00:02:00,36.3,18.5,30.94,South,180,7.0,7.0,48,0.00,,,0.00,meteohub,2013-05-04 06:02:00,
2013-05-04 00:07:00,36.3,18.5,30.94,South,180,7.0,7.0,48,0.00,,,0.00,meteohub,2013-05-04 06:07:00,
2013-05-04 00:12:00,36.1,18.3,30.93,SE,135,4.0,7.0,48,0.00,,,0.00,meteohub,2013-05-04 06:12:00,
2013-05-04 00:17:00,36.3,18.5,30.94,South,180,4.0,8.0,48,0.00,,,0.00,meteohub,2013-05-04 06:17:00,
2013-05-04 00:22:00,36.3,18.5,30.94,SE,135,7.0,8.0,48,0.00,,,0.00,meteohub,2013-05-04 06:22:00,
2013-05-04 00:27:00,36.7,18.9,30.94,SE,135,5.0,11.0,48,0.00,,,0.00,meteohub,2013-05-04 06:27:00,
2013-05-04 00:32:00,36.9,18.5,30.94,South,180,5.0,11.0,47,0.00,,,0.00,meteohub,2013-05-04 06:32:00,
2013-05-04 00:37:00,36.7,18.3,30.94,SE,135,4.0,11.0,47,0.00,,,0.00,meteohub,2013-05-04 06:37:00,
2013-05-04 00:42:00,36.5,18.1,30.94,South,180,4.0,10.0,47,0.00,,,0.00,meteohub,2013-05-04 06:42:00,
2013-05-04 00:47:00,36.1,17.4,30.94,South,180,4.0,6.0,46,0.00,,,0.00,meteohub,2013-05-04 06:47:00,
2013-05-04 00:52:00,36.0,17.6,30.93,South,180,4.0,8.0,47,0.00,,,0.00,meteohub,2013-05-04 06:52:00,
2013-05-04 00:57:00,35.6,17.4,30.94,SE,135,6.0,8.0,47,0.00,,,0.00,meteohub,2013-05-04 06:57:00,
2013-05-04 01:02:00,35.1,17.8,30.94,SE,135,4.0,8.0,49,0.00,,,0.00,meteohub,2013-05-04 07:02:00,
2013-05-04 01:07:00,34.5,17.2,30.94,South,180,4.0,6.0,49,0.00,,,0.00,meteohub,2013-05-04 07:07:00,
2013-05-04 01:13:00,34.2,17.4,30.94,South,180,3.0,6.0,50,0.00,,,0.00,meteohub,2013-05-04 07:13:00,
2013-05-04 01:17:00,34.0,17.2,30.94,SE,135,4.0,5.0,50,0.00,,,0.00,meteohub,2013-05-04 07:17:00,
2013-05-04 01:23:00,33.8,17.1,30.94,South,180,5.0,5.0,50,0.00,,,0.00,meteohub,2013-05-04 07:23:00,
2013-05-04 01:28:00,33.6,17.8,30.93,South,180,3.0,6.0,52,0.00,,,0.00,meteohub,2013-05-04 07:28:00,
2013-05-04 01:33:00,33.3,17.6,30.93,SE,135,4.0,7.0,52,0.00,,,0.00,meteohub,2013-05-04 07:33:00,
2013-05-04 01:38:00,33.1,17.4,30.93,SW,225,5.0,7.0,52,0.00,,,0.00,meteohub,2013-05-04 07:38:00,
2013-05-04 01:43:00,32.7,17.4,30.93,South,180,4.0,7.0,53,0.00,,,0.00,meteohub,2013-05-04 07:43:00,
2013-05-04 01:48:00,33.1,17.8,30.93,SSE,158,5.0,6.0,53,0.00,,,0.00,meteohub,2013-05-04 07:48:00,
2013-05-04 01:53:00,33.3,18.0,30.93,South,180,4.0,6.0,53,0.00,,,0.00,meteohub,2013-05-04 07:53:00,
2013-05-04 01:58:00,33.4,17.8,30.93,SE,135,4.0,5.0,52,0.00,,,0.00,meteohub,2013-05-04 07:58:00,
2013-05-04 02:03:00,33.4,17.8,30.92,South,180,4.0,6.0,52,0.00,,,0.00,meteohub,2013-05-04 08:03:00,
2013-05-04 02:08:00,33.1,17.4,30.93,South,180,4.0,6.0,52,0.00,,,0.00,meteohub,2013-05-04 08:08:00,
2013-05-04 02:13:00,33.1,17.4,30.92,South,180,2.0,5.0,52,0.00,,,0.00,meteohub,2013-05-04 08:13:00,
2013-05-04 02:18:00,32.5,17.2,30.92,South,180,4.0,4.0,53,0.00,,,0.00,meteohub,2013-05-04 08:18:00,
2013-05-04 02:23:00,32.4,17.1,30.92,South,180,4.0,5.0,53,0.00,,,0.00,meteohub,2013-05-04 08:23:00,
2013-05-04 02:28:00,32.0,17.2,30.92,SW,225,4.0,5.0,54,0.00,,,0.00,meteohub,2013-05-04 08:28:00,
2013-05-04 02:33:00,31.3,17.4,30.92,SE,135,6.0,6.0,56,0.00,,,0.00,meteohub,2013-05-04 08:33:00,
2013-05-04 02:38:00,30.6,17.1,30.92,South,180,6.0,6.0,57,0.00,,,0.00,meteohub,2013-05-04 08:38:00,
2013-05-04 02:43:00,30.4,17.4,30.92,SSE,158,7.0,7.0,58,0.00,,,0.00,meteohub,2013-05-04 08:43:00,
2013-05-04 02:48:00,30.4,17.8,30.92,South,180,7.0,7.0,59,0.00,,,0.00,meteohub,2013-05-04 08:48:00,
2013-05-04 02:53:00,30.4,17.8,30.92,South,180,5.0,7.0,59,0.00,,,0.00,meteohub,2013-05-04 08:53:00,
2013-05-04 02:58:00,30.6,18.0,30.92,South,180,5.0,7.0,59,0.00,,,0.00,meteohub,2013-05-04 08:58:00,
2013-05-04 03:03:00,30.4,17.4,30.92,South,180,6.0,7.0,58,0.00,,,0.00,meteohub,2013-05-04 09:03:00,
2013-05-04 03:08:00,30.6,17.6,30.92,South,180,6.0,7.0,58,0.00,,,0.00,meteohub,2013-05-04 09:08:00,
2013-05-04 03:13:00,30.9,18.0,30.92,SE,135,5.0,8.0,58,0.00,,,0.00,meteohub,2013-05-04 09:13:00,
2013-05-04 03:18:00,31.3,17.8,30.92,South,180,8.0,8.0,57,0.00,,,0.00,meteohub,2013-05-04 09:18:00,
2013-05-04 03:23:00,31.8,18.0,30.92,SE,135,5.0,8.0,56,0.00,,,0.00,meteohub,2013-05-04 09:23:00,
2013-05-04 03:28:00,32.0,17.6,30.92,SE,135,5.0,8.0,55,0.00,,,0.00,meteohub,2013-05-04 09:28:00,
2013-05-04 03:33:00,32.0,17.2,30.92,SE,135,4.0,8.0,54,0.00,,,0.00,meteohub,2013-05-04 09:33:00,
2013-05-04 03:38:00,32.2,17.4,30.92,South,180,5.0,8.0,54,0.00,,,0.00,meteohub,2013-05-04 09:38:00,
2013-05-04 03:43:00,32.0,17.2,30.92,SE,135,6.0,8.0,54,0.00,,,0.00,meteohub,2013-05-04 09:43:00,
2013-05-04 03:48:00,32.0,17.2,30.92,South,180,5.0,7.0,54,0.00,,,0.00,meteohub,2013-05-04 09:48:00,
2013-05-04 03:53:00,32.0,17.2,30.92,South,180,8.0,8.0,54,0.00,,,0.00,meteohub,2013-05-04 09:53:00,
2013-05-04 03:58:00,31.8,17.4,30.92,SE,135,5.0,8.0,55,0.00,,,0.00,meteohub,2013-05-04 09:58:00,
2013-05-04 04:03:00,31.8,17.4,30.92,SSE,158,7.0,8.0,55,0.00,,,0.00,meteohub,2013-05-04 10:03:00,
2013-05-04 04:08:00,31.8,17.4,30.92,SE,135,4.0,8.0,55,0.00,,,0.00,meteohub,2013-05-04 10:08:00,
2013-05-04 04:13:00,31.5,17.2,30.92,East,90,5.0,7.0,55,0.00,,,0.00,meteohub,2013-05-04 10:13:00,
2013-05-04 04:18:00,31.5,17.2,30.92,SE,135,8.0,8.0,55,0.00,,,0.00,meteohub,2013-05-04 10:18:00,
2013-05-04 04:23:00,31.3,17.4,30.92,SE,135,5.0,8.0,56,0.00,,,0.00,meteohub,2013-05-04 10:23:00,
2013-05-04 04:28:00,31.1,17.2,30.92,South,180,6.0,8.0,56,0.00,,,0.00,meteohub,2013-05-04 10:28:00,
2013-05-04 04:33:00,31.1,16.9,30.92,SE,135,3.0,8.0,55,0.00,,,0.00,meteohub,2013-05-04 10:33:00,
2013-05-04 04:38:00,30.9,16.7,30.92,South,180,4.0,7.0,55,0.00,,,0.00,meteohub,2013-05-04 10:38:00,
2013-05-04 04:43:00,30.9,16.7,30.92,South,180,6.0,7.0,55,0.00,,,0.00,meteohub,2013-05-04 10:43:00,
2013-05-04 04:48:00,30.9,17.1,30.92,SE,135,5.0,8.0,56,0.00,,,0.00,meteohub,2013-05-04 10:48:00,
2013-05-04 04:53:00,30.7,16.5,30.92,SE,135,6.0,8.0,55,0.00,,,0.00,meteohub,2013-05-04 10:53:00,
2013-05-04 04:58:00,30.7,16.5,30.92,SE,135,4.0,8.0,55,0.00,,,0.00,meteohub,2013-05-04 10:58:00,
2013-05-04 05:03:00,30.6,16.7,30.92,South,180,5.0,8.0,56,0.00,,,0.00,meteohub,2013-05-04 11:03:00,
2013-05-04 05:08:00,30.4,16.5,30.92,South,180,4.0,8.0,56,0.00,,,0.00,meteohub,2013-05-04 11:08:00,
2013-05-04 05:13:00,30.0,16.7,30.92,SSE,158,8.0,8.0,57,0.00,,,0.00,meteohub,2013-05-04 11:13:00,
2013-05-04 05:18:00,29.8,16.5,30.92,SE,135,8.0,8.0,57,0.00,,,0.00,meteohub,2013-05-04 11:18:00,
2013-05-04 05:23:00,29.7,16.3,30.92,SE,135,6.0,8.0,57,0.00,,,0.00,meteohub,2013-05-04 11:23:00,
2013-05-04 05:28:00,29.5,16.5,30.92,SSE,158,9.0,9.0,58,0.00,,,0.00,meteohub,2013-05-04 11:28:00,
2013-05-04 05:33:00,29.7,16.3,30.92,SSE,158,7.0,10.0,57,0.00,,,0.00,meteohub,2013-05-04 11:33:00,
2013-05-04 05:38:00,29.7,16.3,30.92,SE,135,8.0,10.0,57,0.00,,,0.00,meteohub,2013-05-04 11:38:00,
2013-05-04 05:46:00,29.7,16.3,30.92,SE,135,5.0,10.0,57,0.00,,,0.00,meteohub,2013-05-04 11:46:00,
2013-05-04 05:51:00,29.5,16.5,30.92,SSW,203,5.0,9.0,58,0.00,,,0.00,meteohub,2013-05-04 11:51:00,
2013-05-04 05:57:00,28.8,15.8,30.92,South,180,6.0,7.0,58,0.00,,,0.00,meteohub,2013-05-04 11:57:00,
2013-05-04 06:02:00,28.8,15.8,30.92,South,180,8.0,8.0,58,0.00,,,0.00,meteohub,2013-05-04 12:02:00,
2013-05-04 06:08:00,28.6,16.2,30.92,SE,135,5.0,8.0,59,0.00,,,0.00,meteohub,2013-05-04 12:08:00,
2013-05-04 06:14:00,28.9,16.0,30.92,South,180,5.0,8.0,58,0.00,,,0.00,meteohub,2013-05-04 12:14:00,
2013-05-04 06:20:00,28.8,15.8,30.92,SSE,158,8.0,8.0,58,0.00,,,0.00,meteohub,2013-05-04 12:20:00,
2013-05-04 06:27:00,28.8,15.8,30.92,SE,135,8.0,8.0,58,0.00,,,0.00,meteohub,2013-05-04 12:27:00,
2013-05-04 06:32:00,28.9,16.0,30.92,South,180,5.0,8.0,58,0.00,,,0.00,meteohub,2013-05-04 12:32:00,
2013-05-04 06:37:00,28.9,16.0,30.92,SE,135,8.0,8.0,58,0.00,,,0.00,meteohub,2013-05-04 12:37:00,
2013-05-04 06:42:00,28.8,15.8,30.92,South,180,7.0,8.0,58,0.00,,,0.00,meteohub,2013-05-04 12:42:00,
2013-05-04 06:47:00,28.8,15.8,30.92,South,180,7.0,8.0,58,0.00,,,0.00,meteohub,2013-05-04 12:47:00,
2013-05-04 06:52:00,28.8,16.2,30.92,South,180,8.0,10.0,59,0.00,,,0.00,meteohub,2013-05-04 12:52:00,
2013-05-04 06:57:00,28.9,16.3,30.92,South,180,9.0,10.0,59,0.00,,,0.00,meteohub,2013-05-04 12:57:00,
2013-05-04 07:02:00,29.1,16.5,30.92,South,180,7.0,10.0,59,0.00,,,0.00,meteohub,2013-05-04 13:02:00,
2013-05-04 07:04:00,29.1,16.5,30.92,South,180,4.0,10.0,59,0.00,,,0.00,meteohub,2013-05-04 13:04:00,
2013-05-04 07:10:00,29.1,16.9,30.92,South,180,5.0,10.0,60,0.00,,,0.00,meteohub,2013-05-04 13:10:00,
2013-05-04 07:15:00,28.9,16.9,30.92,South,180,4.0,10.0,60,0.00,,,0.00,meteohub,2013-05-04 13:15:00,
2013-05-04 07:20:00,28.8,17.1,30.92,South,180,4.0,8.0,61,0.00,,,0.00,meteohub,2013-05-04 13:20:00,
2013-05-04 07:25:00,28.9,17.2,30.93,South,180,8.0,8.0,61,0.00,,,0.00,meteohub,2013-05-04 13:25:00,
2013-05-04 07:30:00,29.1,17.4,30.92,South,180,8.0,8.0,61,0.00,,,0.00,meteohub,2013-05-04 13:30:00,
2013-05-04 07:35:00,29.3,17.1,30.93,South,180,5.0,10.0,60,0.00,,,0.00,meteohub,2013-05-04 13:35:00,
2013-05-04 07:40:00,29.5,17.2,30.93,South,180,7.0,10.0,60,0.00,,,0.00,meteohub,2013-05-04 13:40:00,
2013-05-04 07:45:00,29.8,18.0,30.93,SE,135,4.0,10.0,61,0.00,,,0.00,meteohub,2013-05-04 13:45:00,
2013-05-04 07:50:00,30.2,18.3,30.93,SW,225,6.0,10.0,61,0.00,,,0.00,meteohub,2013-05-04 13:50:00,
2013-05-04 07:55:00,30.9,18.7,30.92,South,180,8.0,8.0,60,0.00,,,0.00,meteohub,2013-05-04 13:55:00,
2013-05-04 08:00:00,32.2,18.7,30.92,South,180,7.0,8.0,57,0.00,,,0.00,meteohub,2013-05-04 14:00:00,
2013-05-04 08:05:00,32.2,18.7,30.92,South,180,7.0,8.0,57,0.00,,,0.00,meteohub,2013-05-04 14:05:00,
2013-05-04 08:10:00,34.2,18.9,30.92,SW,225,7.0,8.0,53,0.00,,,0.00,meteohub,2013-05-04 14:10:00,
2013-05-04 08:15:00,35.2,18.9,30.92,SE,135,7.0,7.0,51,0.00,,,0.00,meteohub,2013-05-04 14:15:00,
2013-05-04 08:20:00,36.0,18.7,30.92,South,180,8.0,8.0,49,0.00,,,0.00,meteohub,2013-05-04 14:20:00,
2013-05-04 08:25:00,36.5,18.7,30.92,South,180,9.0,9.0,48,0.00,,,0.00,meteohub,2013-05-04 14:25:00,
2013-05-04 08:30:00,37.0,18.7,30.93,SE,135,7.0,10.0,47,0.00,,,0.00,meteohub,2013-05-04 14:30:00,
2013-05-04 08:35:00,37.6,20.7,30.92,South,180,8.0,10.0,50,0.00,,,0.00,meteohub,2013-05-04 14:35:00,
2013-05-04 08:40:00,38.1,21.2,30.92,SSW,203,8.0,10.0,50,0.00,,,0.00,meteohub,2013-05-04 14:40:00,
2013-05-04 08:45:00,38.7,21.2,30.92,South,180,8.0,9.0,49,0.00,,,0.00,meteohub,2013-05-04 14:45:00,
2013-05-04 08:50:00,39.2,21.2,30.92,South,180,8.0,9.0,48,0.00,,,0.00,meteohub,2013-05-04 14:50:00,
2013-05-04 08:55:00,39.7,21.2,30.92,South,180,8.0,9.0,47,0.00,,,0.00,meteohub,2013-05-04 14:55:00,
2013-05-04 09:00:00,40.1,21.0,30.92,SE,135,7.0,9.0,46,0.00,,,0.00,meteohub,2013-05-04 15:00:00,
2013-05-04 09:05:00,40.8,21.6,30.92,SE,135,5.0,8.0,46,0.00,,,0.00,meteohub,2013-05-04 15:05:00,
2013-05-04 09:10:00,41.4,21.0,30.92,SE,135,7.0,8.0,44,0.00,,,0.00,meteohub,2013-05-04 15:10:00,
2013-05-04 09:15:00,41.5,20.1,30.92,East,90,4.0,8.0,42,0.00,,,0.00,meteohub,2013-05-04 15:15:00,
2013-05-04 09:20:00,41.9,20.5,30.92,South,180,8.0,8.0,42,0.00,,,0.00,meteohub,2013-05-04 15:20:00,
2013-05-04 09:25:00,42.6,21.2,30.92,South,180,9.0,9.0,42,0.00,,,0.00,meteohub,2013-05-04 15:25:00,
2013-05-04 09:30:00,43.7,21.6,30.91,SE,135,5.0,9.0,41,0.00,,,0.00,meteohub,2013-05-04 15:30:00,
2013-05-04 09:35:00,43.9,20.5,30.91,South,180,4.0,9.0,39,0.00,,,0.00,meteohub,2013-05-04 15:35:00,
2013-05-04 09:40:00,44.6,21.2,30.91,South,180,8.0,9.0,39,0.00,,,0.00,meteohub,2013-05-04 15:40:00,
2013-05-04 09:45:00,45.1,21.7,30.91,SSW,203,6.0,8.0,39,0.00,,,0.00,meteohub,2013-05-04 15:45:00,
2013-05-04 09:50:00,45.9,21.7,30.91,South,180,5.0,8.0,38,0.00,,,0.00,meteohub,2013-05-04 15:50:00,
2013-05-04 09:55:00,46.6,21.7,30.91,South,180,8.0,8.0,37,0.00,,,0.00,meteohub,2013-05-04 15:55:00,
2013-05-04 10:00:00,46.8,21.2,30.91,South,180,4.0,8.0,36,0.00,,,0.00,meteohub,2013-05-04 16:00:00,
2013-05-04 10:05:00,46.8,21.2,30.90,South,180,4.0,8.0,36,0.00,,,0.00,meteohub,2013-05-04 16:05:00,
2013-05-04 10:10:00,48.4,21.4,30.90,South,180,7.0,8.0,34,0.00,,,0.00,meteohub,2013-05-04 16:10:00,
2013-05-04 10:15:00,48.4,20.7,30.91,South,180,8.0,8.0,33,0.00,,,0.00,meteohub,2013-05-04 16:15:00,
2013-05-04 10:20:00,49.1,21.2,30.90,South,180,6.0,8.0,33,0.00,,,0.00,meteohub,2013-05-04 16:20:00,
2013-05-04 10:25:00,49.8,21.9,30.91,South,180,8.0,8.0,33,0.00,,,0.00,meteohub,2013-05-04 16:25:00,
2013-05-04 10:30:00,50.0,20.5,30.91,South,180,8.0,11.0,31,0.00,,,0.00,meteohub,2013-05-04 16:30:00,
2013-05-04 10:35:00,50.5,21.0,30.91,South,180,8.0,11.0,31,0.00,,,0.00,meteohub,2013-05-04 16:35:00,
2013-05-04 10:40:00,50.9,20.5,30.91,South,180,8.0,11.0,30,0.00,,,0.00,meteohub,2013-05-04 16:40:00,
2013-05-04 10:45:00,51.3,20.8,30.90,South,180,10.0,11.0,30,0.00,,,0.00,meteohub,2013-05-04 16:45:00,
2013-05-04 10:50:00,51.4,21.0,30.91,South,180,10.0,12.0,30,0.00,,,0.00,meteohub,2013-05-04 16:50:00,
2013-05-04 10:55:00,51.8,21.4,30.90,South,180,10.0,12.0,30,0.00,,,0.00,meteohub,2013-05-04 16:55:00,
2013-05-04 11:00:00,52.3,21.0,30.90,South,180,10.0,12.0,29,0.00,,,0.00,meteohub,2013-05-04 17:00:00,
2013-05-04 11:05:00,52.5,21.2,30.91,SSE,158,8.0,11.0,29,0.00,,,0.00,meteohub,2013-05-04 17:05:00,
2013-05-04 11:10:00,53.2,22.6,30.91,South,180,7.0,15.0,30,0.00,,,0.00,meteohub,2013-05-04 17:10:00,
2013-05-04 11:15:00,53.6,20.5,30.91,South,180,13.0,15.0,27,0.00,,,0.00,meteohub,2013-05-04 17:15:00,
2013-05-04 11:20:00,53.6,20.5,30.90,SE,135,5.0,15.0,27,0.00,,,0.00,meteohub,2013-05-04 17:20:00,
2013-05-04 11:25:00,53.8,19.8,30.91,SE,135,8.0,13.0,26,0.00,,,0.00,meteohub,2013-05-04 17:25:00,
2013-05-04 11:30:00,52.5,17.8,30.91,SW,225,8.0,13.0,25,0.00,,,0.00,meteohub,2013-05-04 17:30:00,
2013-05-04 11:35:00,52.9,20.7,30.90,South,180,8.0,13.0,28,0.00,,,0.00,meteohub,2013-05-04 17:35:00,
2013-05-04 11:40:00,53.8,21.4,30.90,SE,135,6.0,12.0,28,0.00,,,0.00,meteohub,2013-05-04 17:40:00,
2013-05-04 11:45:00,54.7,22.3,30.90,South,180,14.0,15.0,28,0.00,,,0.00,meteohub,2013-05-04 17:45:00,
2013-05-04 11:50:00,55.2,21.7,30.90,SW,225,14.0,15.0,27,0.00,,,0.00,meteohub,2013-05-04 17:50:00,
2013-05-04 11:55:00,55.2,20.8,30.90,South,180,11.0,15.0,26,0.00,,,0.00,meteohub,2013-05-04 17:55:00,
2013-05-04 12:00:00,54.7,20.5,30.90,NNE,23,9.0,15.0,26,0.00,,,0.00,meteohub,2013-05-04 18:00:00,
2013-05-04 12:05:00,54.7,20.5,30.90,NNE,23,9.0,15.0,26,0.00,,,0.00,meteohub,2013-05-04 18:05:00,
2013-05-04 12:10:00,52.3,17.6,30.90,South,180,8.0,14.0,25,0.00,,,0.00,meteohub,2013-05-04 18:10:00,
2013-05-04 12:15:00,52.2,16.5,30.90,NE,45,4.0,10.0,24,0.00,,,0.00,meteohub,2013-05-04 18:15:00,
2013-05-04 12:20:00,52.5,17.8,30.90,South,180,11.0,11.0,25,0.00,,,0.00,meteohub,2013-05-04 18:20:00,
2013-05-04 12:25:00,52.9,17.1,30.90,South,180,11.0,11.0,24,0.00,,,0.00,meteohub,2013-05-04 18:25:00,
2013-05-04 12:30:00,52.9,17.1,30.90,SE,135,8.0,11.0,24,0.00,,,0.00,meteohub,2013-05-04 18:30:00,
2013-05-04 12:35:00,52.2,16.5,30.90,SE,135,9.0,11.0,24,0.00,,,0.00,meteohub,2013-05-04 18:35:00,
2013-05-04 12:40:00,51.4,14.9,30.91,NE,45,5.0,11.0,23,0.00,,,0.00,meteohub,2013-05-04 18:40:00,
2013-05-04 12:45:00,50.7,14.2,30.91,NE,45,15.0,15.0,23,0.00,,,0.00,meteohub,2013-05-04 18:45:00,
2013-05-04 12:50:00,50.0,14.5,30.91,South,180,8.0,15.0,24,0.00,,,0.00,meteohub,2013-05-04 18:50:00,
2013-05-04 12:55:00,49.5,16.9,30.91,NE,45,4.0,15.0,27,0.00,,,0.00,meteohub,2013-05-04 18:55:00,
2013-05-04 13:00:00,48.9,17.2,30.91,NE,45,8.0,15.0,28,0.00,,,0.00,meteohub,2013-05-04 19:00:00,
2013-05-04 13:05:00,48.0,18.1,30.90,North,0,8.0,12.0,30,0.00,,,0.00,meteohub,2013-05-04 19:05:00,
2013-05-04 13:10:00,48.4,17.6,30.90,SW,225,2.0,12.0,29,0.00,,,0.00,meteohub,2013-05-04 19:10:00,
2013-05-04 13:15:00,48.9,18.0,30.90,NW,315,3.0,8.0,29,0.00,,,0.00,meteohub,2013-05-04 19:15:00,
2013-05-04 13:20:00,50.9,19.8,30.90,East,90,2.0,8.0,29,0.00,,,0.00,meteohub,2013-05-04 19:20:00,
2013-05-04 13:25:00,52.5,21.2,30.90,South,180,6.0,8.0,29,0.00,,,0.00,meteohub,2013-05-04 19:25:00,
2013-05-04 13:30:00,53.8,21.4,30.90,SE,135,6.0,8.0,28,0.00,,,0.00,meteohub,2013-05-04 19:30:00,
2013-05-04 13:35:00,53.4,18.5,30.90,East,90,8.0,11.0,25,0.00,,,0.00,meteohub,2013-05-04 19:35:00,
2013-05-04 13:40:00,53.4,21.9,30.90,South,180,12.0,12.0,29,0.00,,,0.00,meteohub,2013-05-04 19:40:00,
2013-05-04 13:45:00,54.5,23.7,30.90,SSW,203,11.0,12.0,30,0.00,,,0.00,meteohub,2013-05-04 19:45:00,
2013-05-04 13:50:00,55.2,23.5,30.90,SW,225,10.0,12.0,29,0.00,,,0.00,meteohub,2013-05-04 19:50:00,
2013-05-04 13:55:00,55.8,24.8,30.90,SW,225,7.0,14.0,30,0.00,,,0.00,meteohub,2013-05-04 19:55:00,
2013-05-04 14:00:00,55.2,22.6,30.90,South,180,17.0,17.0,28,0.00,,,0.00,meteohub,2013-05-04 20:00:00,
2013-05-04 14:05:00,55.2,22.6,30.89,South,180,17.0,17.0,28,0.00,,,0.00,meteohub,2013-05-04 20:05:00,
2013-05-04 14:10:00,55.2,23.5,30.90,South,180,11.0,17.0,29,0.00,,,0.00,meteohub,2013-05-04 20:10:00,
2013-05-04 14:15:00,54.9,22.3,30.90,SW,225,5.0,17.0,28,0.00,,,0.00,meteohub,2013-05-04 20:15:00,
2013-05-04 14:20:00,54.9,20.7,30.89,SW,225,8.0,17.0,26,0.00,,,0.00,meteohub,2013-05-04 20:20:00,
2013-05-04 14:25:00,55.4,22.8,30.89,South,180,12.0,17.0,28,0.00,,,0.00,meteohub,2013-05-04 20:25:00,
2013-05-04 14:30:00,55.8,23.2,30.89,South,180,12.0,14.0,28,0.00,,,0.00,meteohub,2013-05-04 20:30:00,
2013-05-04 14:35:00,56.1,24.3,30.90,SW,225,11.0,14.0,29,0.00,,,0.00,meteohub,2013-05-04 20:35:00,
2013-05-04 14:40:00,56.1,23.4,30.90,South,180,13.0,16.0,28,0.00,,,0.00,meteohub,2013-05-04 20:40:00,
2013-05-04 14:45:00,55.2,22.6,30.90,SE,135,11.0,16.0,28,0.00,,,0.00,meteohub,2013-05-04 20:45:00,
2013-05-04 14:50:00,54.9,22.3,30.90,South,180,10.0,16.0,28,0.00,,,0.00,meteohub,2013-05-04 20:50:00,
2013-05-04 14:55:00,55.6,23.9,30.90,South,180,15.0,16.0,29,0.00,,,0.00,meteohub,2013-05-04 20:55:00,
2013-05-04 15:00:00,55.2,23.5,30.90,WSW,248,14.0,14.0,29,0.00,,,0.00,meteohub,2013-05-04 21:00:00,
2013-05-04 15:05:00,55.2,24.3,30.91,South,180,11.0,17.0,30,0.00,,,0.00,meteohub,2013-05-04 21:05:00,
2013-05-04 15:10:00,54.1,23.4,30.91,South,180,12.0,17.0,30,0.00,,,0.00,meteohub,2013-05-04 21:10:00,
2013-05-04 15:15:00,54.0,24.8,30.90,South,180,15.0,18.0,32,0.00,,,0.00,meteohub,2013-05-04 21:15:00,
2013-05-04 15:20:00,54.3,26.6,30.91,South,180,13.0,18.0,34,0.00,,,0.00,meteohub,2013-05-04 21:20:00,
2013-05-04 15:25:00,55.6,28.4,30.91,South,180,11.0,70.0,35,0.00,,,0.00,meteohub,2013-05-04 21:25:00,
2013-05-04 15:30:00,56.3,28.2,30.90,South,180,12.0,70.0,34,0.00,,,0.00,meteohub,2013-05-04 21:30:00,
2013-05-04 15:35:00,56.5,27.0,30.90,SW,225,11.0,20.0,32,0.00,,,0.00,meteohub,2013-05-04 21:35:00,
2013-05-04 15:40:00,56.5,27.0,30.91,South,180,7.0,15.0,32,0.00,,,0.00,meteohub,2013-05-04 21:40:00,
2013-05-04 15:45:00,56.3,24.4,30.90,South,180,15.0,15.0,29,0.00,,,0.00,meteohub,2013-05-04 21:45:00,
2013-05-04 15:50:00,55.8,25.5,30.90,South,180,10.0,12.0,31,0.00,,,0.00,meteohub,2013-05-04 21:50:00,
2013-05-04 15:55:00,55.4,26.1,30.90,South,180,15.0,15.0,32,0.00,,,0.00,meteohub,2013-05-04 21:55:00,
2013-05-04 16:00:00,55.2,24.3,30.90,SE,135,13.0,15.0,30,0.00,,,0.00,meteohub,2013-05-04 22:00:00,
2013-05-04 16:05:00,55.2,24.3,30.90,SE,135,13.0,15.0,30,0.00,,,0.00,meteohub,2013-05-04 22:05:00,
2013-05-04 16:09:00,53.4,23.5,30.90,North,0,8.0,15.0,31,0.00,,,0.00,meteohub,2013-05-04 22:09:00,
2013-05-04 16:14:00,52.5,22.8,30.90,East,90,8.0,15.0,31,0.00,,,0.00,meteohub,2013-05-04 22:14:00,
2013-05-04 16:19:00,52.0,21.6,30.90,South,180,5.0,13.0,30,0.00,,,0.00,meteohub,2013-05-04 22:19:00,
2013-05-04 16:24:00,51.8,22.8,30.90,South,180,17.0,17.0,32,0.00,,,0.00,meteohub,2013-05-04 22:24:00,
2013-05-04 16:29:00,51.1,24.4,30.90,SE,135,11.0,11.0,35,0.00,,,0.00,meteohub,2013-05-04 22:29:00,
2013-05-04 16:34:00,50.0,24.1,30.90,South,180,7.0,17.0,36,0.00,,,0.00,meteohub,2013-05-04 22:34:00,
2013-05-04 16:39:00,49.1,25.2,30.91,South,180,8.0,17.0,39,0.00,,,0.00,meteohub,2013-05-04 22:39:00,
2013-05-04 16:44:00,48.2,25.5,30.91,South,180,7.0,17.0,41,0.00,,,0.00,meteohub,2013-05-04 22:44:00,
2013-05-04 16:49:00,47.7,25.7,30.90,South,180,11.0,11.0,42,0.00,,,0.00,meteohub,2013-05-04 22:49:00,
2013-05-04 16:54:00,47.1,25.7,30.91,South,180,7.0,11.0,43,0.00,,,0.00,meteohub,2013-05-04 22:54:00,
2013-05-04 16:59:00,46.9,26.2,30.91,South,180,11.0,12.0,44,0.00,,,0.00,meteohub,2013-05-04 22:59:00,
2013-05-04 17:04:00,46.6,26.4,30.92,South,180,8.0,12.0,45,0.00,,,0.00,meteohub,2013-05-04 23:04:00,
2013-05-04 17:09:00,46.6,27.0,30.92,South,180,13.0,15.0,46,0.00,,,0.00,meteohub,2013-05-04 23:09:00,
2013-05-04 17:14:00,46.6,27.5,30.92,SE,135,8.0,17.0,47,0.00,,,0.00,meteohub,2013-05-04 23:14:00,
2013-05-04 17:19:00,46.4,27.9,30.92,South,180,11.0,17.0,48,0.00,,,0.00,meteohub,2013-05-04 23:19:00,
2013-05-04 17:24:00,46.4,28.8,30.93,South,180,7.0,15.0,50,0.00,,,0.00,meteohub,2013-05-04 23:24:00,
2013-05-04 17:29:00,45.9,28.2,30.93,South,180,11.0,15.0,50,0.00,,,0.00,meteohub,2013-05-04 23:29:00,
2013-05-04 17:34:00,45.5,27.9,30.93,South,180,15.0,15.0,50,0.00,,,0.00,meteohub,2013-05-04 23:34:00,
2013-05-04 17:39:00,45.0,27.9,30.94,SW,225,15.0,17.0,51,0.00,,,0.00,meteohub,2013-05-04 23:39:00,
2013-05-04 17:45:00,44.2,27.7,30.94,South,180,9.0,17.0,52,0.00,,,0.00,meteohub,2013-05-04 23:45:00,
2013-05-04 17:50:00,44.1,28.0,30.94,SW,225,12.0,17.0,53,0.00,,,0.00,meteohub,2013-05-04 23:50:00,
2013-05-04 17:55:00,43.9,28.4,30.94,South,180,10.0,15.0,54,0.00,,,0.00,meteohub,2013-05-04 23:55:00,
2013-05-04 18:00:00,43.9,29.1,30.94,South,180,10.0,12.0,56,0.00,,,0.00,meteohub,2013-05-05 00:00:00,
2013-05-04 18:05:00,43.9,29.1,30.94,South,180,10.0,12.0,56,0.00,,,0.00,meteohub,2013-05-05 00:05:00,
2013-05-04 18:10:00,44.6,29.8,30.94,WSW,248,11.0,11.0,56,0.00,,,0.00,meteohub,2013-05-05 00:10:00,
2013-05-04 18:15:00,45.1,29.5,30.94,SSW,203,11.0,11.0,54,0.00,,,0.00,meteohub,2013-05-05 00:15:00,
2013-05-04 18:20:00,45.1,28.6,30.94,South,180,9.0,11.0,52,0.00,,,0.00,meteohub,2013-05-05 00:20:00,
2013-05-04 18:25:00,45.5,29.3,30.93,SW,225,10.0,12.0,53,0.00,,,0.00,meteohub,2013-05-05 00:25:00,
2013-05-04 18:33:00,47.3,30.6,30.93,SW,225,10.0,12.0,52,0.00,,,0.00,meteohub,2013-05-05 00:33:00,
2013-05-04 18:38:00,47.1,28.9,30.93,South,180,11.0,13.0,49,0.00,,,0.00,meteohub,2013-05-05 00:38:00,
2013-05-04 18:43:00,46.6,27.5,30.94,South,180,9.0,17.0,47,0.00,,,0.00,meteohub,2013-05-05 00:43:00,
2013-05-04 18:48:00,46.0,27.5,30.93,SSW,203,11.0,17.0,48,0.00,,,0.00,meteohub,2013-05-05 00:48:00,
2013-05-04 18:53:00,45.3,26.8,30.94,SW,225,8.0,17.0,48,0.00,,,0.00,meteohub,2013-05-05 00:53:00,
2013-05-04 18:58:00,44.8,26.2,30.94,South,180,17.0,17.0,48,0.00,,,0.00,meteohub,2013-05-05 00:58:00,
2013-05-04 19:03:00,44.2,26.8,30.94,South,180,9.0,11.0,50,0.00,,,0.00,meteohub,2013-05-05 01:03:00,
2013-05-04 19:08:00,43.7,26.2,30.94,South,180,8.0,17.0,50,0.00,,,0.00,meteohub,2013-05-05 01:08:00,
2013-05-04 19:13:00,43.3,25.9,30.94,SE,135,8.0,17.0,50,0.00,,,0.00,meteohub,2013-05-05 01:13:00,
2013-05-04 19:18:00,42.8,25.5,30.95,SE,135,8.0,13.0,50,0.00,,,0.00,meteohub,2013-05-05 01:18:00,
2013-05-04 19:23:00,42.3,25.9,30.95,South,180,8.0,13.0,52,0.00,,,0.00,meteohub,2013-05-05 01:23:00,
2013-05-04 19:28:00,41.9,25.5,30.94,South,180,9.0,13.0,52,0.00,,,0.00,meteohub,2013-05-05 01:28:00,
2013-05-04 19:33:00,41.5,25.7,30.95,South,180,11.0,13.0,53,0.00,,,0.00,meteohub,2013-05-05 01:33:00,
2013-05-04 19:38:00,41.2,25.9,30.95,South,180,7.0,11.0,54,0.00,,,0.00,meteohub,2013-05-05 01:38:00,
2013-05-04 19:43:00,40.8,25.9,30.95,SW,225,8.0,11.0,55,0.00,,,0.00,meteohub,2013-05-05 01:43:00,
2013-05-04 19:48:00,40.6,26.2,30.96,SE,135,8.0,11.0,56,0.00,,,0.00,meteohub,2013-05-05 01:48:00,
2013-05-04 19:53:00,40.5,26.4,30.96,South,180,7.0,12.0,57,0.00,,,0.00,meteohub,2013-05-05 01:53:00,
2013-05-04 19:58:00,40.3,26.2,30.96,South,180,8.0,12.0,57,0.00,,,0.00,meteohub,2013-05-05 01:58:00,
2013-05-04 20:03:00,40.1,26.6,30.96,South,180,8.0,12.0,58,0.00,,,0.00,meteohub,2013-05-05 02:03:00,
2013-05-04 20:08:00,39.9,26.8,30.96,South,180,7.0,11.0,59,0.00,,,0.00,meteohub,2013-05-05 02:08:00,
2013-05-04 20:13:00,39.9,27.1,30.96,South,180,8.0,10.0,60,0.00,,,0.00,meteohub,2013-05-05 02:13:00,
2013-05-04 20:18:00,39.9,27.1,30.97,South,180,9.0,10.0,60,0.00,,,0.00,meteohub,2013-05-05 02:18:00,
2013-05-04 20:23:00,39.9,27.1,30.97,SSW,203,8.0,11.0,60,0.00,,,0.00,meteohub,2013-05-05 02:23:00,
2013-05-04 20:28:00,39.9,27.1,30.97,South,180,9.0,11.0,60,0.00,,,0.00,meteohub,2013-05-05 02:28:00,
2013-05-04 20:33:00,39.9,27.1,30.97,South,180,8.0,11.0,60,0.00,,,0.00,meteohub,2013-05-05 02:33:00,
2013-05-04 20:38:00,39.7,27.0,30.97,South,180,10.0,11.0,60,0.00,,,0.00,meteohub,2013-05-05 02:38:00,
2013-05-04 20:43:00,39.6,27.1,30.97,South,180,7.0,10.0,61,0.00,,,0.00,meteohub,2013-05-05 02:43:00,
2013-05-04 20:48:00,39.2,27.0,30.97,South,180,11.0,11.0,61,0.00,,,0.00,meteohub,2013-05-05 02:48:00,
2013-05-04 20:53:00,39.0,27.5,30.97,SE,135,8.0,11.0,63,0.00,,,0.00,meteohub,2013-05-05 02:53:00,
2013-05-04 20:58:00,38.7,27.1,30.97,South,180,11.0,11.0,63,0.00,,,0.00,meteohub,2013-05-05 02:58:00,
2013-05-04 21:03:00,38.5,27.0,30.98,South,180,11.0,13.0,63,0.00,,,0.00,meteohub,2013-05-05 03:03:00,
2013-05-04 21:08:00,38.1,27.0,30.98,South,180,11.0,13.0,64,0.00,,,0.00,meteohub,2013-05-05 03:08:00,
2013-05-04 21:13:00,37.9,26.8,30.98,South,180,10.0,13.0,64,0.00,,,0.00,meteohub,2013-05-05 03:13:00,
2013-05-04 21:18:00,37.8,26.6,30.98,South,180,8.0,13.0,64,0.00,,,0.00,meteohub,2013-05-05 03:18:00,
2013-05-04 21:23:00,37.6,27.0,30.98,South,180,9.0,11.0,65,0.00,,,0.00,meteohub,2013-05-05 03:23:00,
2013-05-04 21:28:00,37.4,27.1,30.98,South,180,9.0,11.0,66,0.00,,,0.00,meteohub,2013-05-05 03:28:00,
2013-05-04 21:33:00,37.2,25.3,30.99,South,180,4.0,11.0,62,0.00,,,0.00,meteohub,2013-05-05 03:33:00,
2013-05-04 21:38:00,36.9,25.0,30.99,South,180,4.0,11.0,62,0.00,,,0.00,meteohub,2013-05-05 03:38:00,
2013-05-04 21:43:00,36.7,25.0,30.99,South,180,4.0,11.0,62,0.00,,,0.00,meteohub,2013-05-05 03:43:00,
2013-05-04 21:48:00,36.5,24.8,30.99,South,180,5.0,9.0,62,0.00,,,0.00,meteohub,2013-05-05 03:48:00,
2013-05-04 21:53:00,36.3,24.6,30.99,South,180,4.0,6.0,62,0.00,,,0.00,meteohub,2013-05-05 03:53:00,
2013-05-04 21:58:00,36.3,24.6,30.99,SW,225,7.0,8.0,62,0.00,,,0.00,meteohub,2013-05-05 03:58:00,
2013-05-04 22:01:00,36.3,24.6,30.99,SE,135,4.0,8.0,62,0.00,,,0.00,meteohub,2013-05-05 04:01:00,
2013-05-04 22:02:00,36.3,24.6,30.99,SE,135,4.0,8.0,62,0.00,,,0.00,meteohub,2013-05-05 04:02:00,
2013-05-04 22:07:00,36.3,24.6,30.99,SE,135,4.0,8.0,62,0.00,,,0.00,meteohub,2013-05-05 04:07:00,
2013-05-04 22:12:00,36.7,24.4,30.99,East,90,8.0,11.0,61,0.00,,,0.00,meteohub,2013-05-05 04:12:00,
2013-05-04 22:17:00,37.4,26.4,30.99,SE,135,8.0,11.0,64,0.00,,,0.00,meteohub,2013-05-05 04:17:00,
2013-05-04 22:22:00,37.8,26.2,30.99,South,180,15.0,15.0,63,0.00,,,0.00,meteohub,2013-05-05 04:22:00,
2013-05-04 22:27:00,38.1,26.2,30.99,South,180,9.0,15.0,62,0.00,,,0.00,meteohub,2013-05-05 04:27:00,
2013-05-04 22:32:00,38.1,26.2,30.99,South,180,10.0,15.0,62,0.00,,,0.00,meteohub,2013-05-05 04:32:00,
2013-05-04 22:37:00,38.1,26.2,30.99,South,180,8.0,15.0,62,0.00,,,0.00,meteohub,2013-05-05 04:37:00,
2013-05-04 22:42:00,37.9,26.1,30.99,South,180,8.0,11.0,62,0.00,,,0.00,meteohub,2013-05-05 04:42:00,
2013-05-04 22:47:00,37.8,25.9,30.99,South,180,8.0,11.0,62,0.00,,,0.00,meteohub,2013-05-05 04:47:00,
2013-05-04 22:52:00,37.8,26.2,31.00,SW,225,6.0,11.0,63,0.00,,,0.00,meteohub,2013-05-05 04:52:00,
2013-05-04 22:57:00,37.6,26.1,31.00,South,180,7.0,11.0,63,0.00,,,0.00,meteohub,2013-05-05 04:57:00,
2013-05-04 23:02:00,37.4,26.4,31.00,South,180,6.0,8.0,64,0.00,,,0.00,meteohub,2013-05-05 05:02:00,
2013-05-04 23:07:00,37.2,24.6,31.00,South,180,4.0,8.0,60,0.00,,,0.00,meteohub,2013-05-05 05:07:00,
2013-05-04 23:12:00,37.0,24.4,31.00,South,180,5.0,8.0,60,0.00,,,0.00,meteohub,2013-05-05 05:12:00,
2013-05-04 23:17:00,36.7,24.4,31.00,SE,135,6.0,8.0,61,0.00,,,0.00,meteohub,2013-05-05 05:17:00,
2013-05-04 23:22:00,36.1,24.4,31.00,South,180,7.0,8.0,62,0.00,,,0.00,meteohub,2013-05-05 05:22:00,
2013-05-04 23:27:00,36.0,24.3,30.99,SE,135,5.0,8.0,62,0.00,,,0.00,meteohub,2013-05-05 05:27:00,
2013-05-04 23:32:00,35.8,24.4,30.99,South,180,6.0,8.0,63,0.00,,,0.00,meteohub,2013-05-05 05:32:00,
2013-05-04 23:37:00,35.4,24.4,30.99,South,180,6.0,8.0,64,0.00,,,0.00,meteohub,2013-05-05 05:37:00,
2013-05-04 23:42:00,35.1,24.1,31.00,South,180,5.0,8.0,64,0.00,,,0.00,meteohub,2013-05-05 05:42:00,
2013-05-04 23:47:00,34.7,23.7,31.00,South,180,7.0,7.0,64,0.00,,,0.00,meteohub,2013-05-05 05:47:00,
2013-05-04 23:52:00,34.7,24.1,31.00,South,180,7.0,7.0,65,0.00,,,0.00,meteohub,2013-05-05 05:52:00,
2013-05-04 23:57:00,34.5,23.9,31.00,South,180,7.0,8.0,65,0.00,,,0.00,meteohub,2013-05-05 05:57:00,